Time;durP1;ratioP1;P1;durP2;ratioP2;P2;SDS_P1;SDS_P2;PMS_P1;PMS_P2;Temp;Humidity;BMP_temperature;BMP_pressure;BME280_temperature;BME280_humidity;BME280_pressure;Samples;Min_cycle;Max_cycle;Signal;HPM_P1;HPM_P2
2022/02/14 11:42:15;;;;;;;7.85;7.05;;;;;;;7.68;46.16;99573.70;1761609;79;22156;-67
2022/02/14 11:44:42;;;;;;;7.17;6.47;;;;;;;7.69;48.32;99568.77;1740002;80;20951;-65
2022/02/14 11:47:11;;;;;;;8.68;6.87;;;;;;;7.87;46.09;99553.20;1737030;81;21324;-68
2022/02/14 11:49:55;;;;;;;7.37;6.62;;;;;;;8.04;45.26;99559.49;1740644;81;21472;-68
2022/02/14 11:54:37;;;;;;;7.17;6.33;;;;;;;8.41;47.70;99546.08;1790549;79;22044;-69
2022/02/14 11:57:45;;;;;;;8.40;6.97;;;;;;;8.59;45.54;99541.07;1770161;80;21042;-66
2022/02/14 12:00:24;;;;;;;8.75;6.92;;;;;;;8.53;44.10;99535.05;1784123;80;21875;-68
2022/02/14 12:03:14;;;;;;;8.78;6.70;;;;;;;8.35;43.89;99539.57;1777285;80;21466;-65
2022/02/14 12:06:04;;;;;;;8.40;6.42;;;;;;;8.30;45.33;99538.37;1769356;80;20951;-65
2022/02/14 12:09:00;;;;;;;7.40;6.60;;;;;;;8.55;47.13;99535.72;1758643;80;20946;-67
2022/02/14 12:11:45;;;;;;;7.72;6.92;;;;;;;8.78;45.14;99547.15;1766406;80;21016;-68
2022/02/14 12:14:16;;;;;;;7.05;6.35;;;;;;;8.66;44.35;99536.80;1762928;80;21175;-67
2022/02/14 12:22:43;;;;;;;9.13;6.33;;;;;;;8.08;44.46;99531.72;1777851;80;20973;-67
2022/02/14 12:25:10;;;;;;;7.62;6.75;;;;;;;7.95;45.09;99520.16;1773140;80;20881;-66
2022/02/14 12:27:36;;;;;;;8.88;6.72;;;;;;;7.94;45.05;99530.92;1768548;80;21193;-67
2022/02/14 12:30:19;;;;;;;9.45;7.08;;;;;;;7.88;45.21;99523.09;1776512;80;20942;-67
2022/02/14 12:33:04;;;;;;;7.15;6.12;;;;;;;7.83;44.76;99531.98;1775742;80;20983;-66
2022/02/14 12:35:38;;;;;;;;;;;;;;;7.64;45.07;99524.70;1771961;80;21029;-66
2022/02/14 12:38:05;;;;;;;8.93;6.75;;;;;;;7.48;45.98;99520.06;1772527;80;20115;-68
2022/02/14 12:40:51;;;;;;;7.33;6.53;;;;;;;7.46;46.58;99533.44;1776544;80;23117;-68
2022/02/14 12:43:31;;;;;;;8.88;7.05;;;;;;;7.38;47.21;99525.41;1782704;80;21410;-65
2022/02/14 12:46:02;;;;;;;8.93;7.08;;;;;;;7.22;47.62;99523.89;1780704;80;21021;-66
2022/02/14 12:48:43;;;;;;;9.08;7.10;;;;;;;7.06;48.14;99519.75;1773490;80;21032;-65
2022/02/14 12:51:28;;;;;;;8.03;7.20;;;;;;;6.94;48.25;99518.75;1776130;80;20879;-65
2022/02/14 12:54:05;;;;;;;9.63;7.35;;;;;;;6.83;48.39;99525.05;1771472;80;21112;-66
2022/02/14 12:56:36;;;;;;;9.08;7.10;;;;;;;6.75;48.92;99512.56;1762426;81;20985;-67
2022/02/14 12:59:07;;;;;;;7.05;6.30;;;;;;;6.69;49.15;99517.61;1763258;81;21085;-65
2022/02/14 13:01:43;;;;;;;8.53;6.72;;;;;;;6.69;49.07;99517.61;1764908;81;21010;-66
2022/02/14 13:04:18;;;;;;;7.08;6.37;;;;;;;6.69;49.14;99520.25;1762396;81;20927;-66
2022/02/14 13:06:52;;;;;;;7.28;6.00;;;;;;;6.64;48.87;99518.53;1752272;81;22610;-64
2022/02/14 13:09:29;;;;;;;8.18;6.42;;;;;;;6.54;49.27;99523.02;1759650;81;21021;-66
2022/02/14 13:12:02;;;;;;;7.10;6.03;;;;;;;6.42;49.62;99514.42;1755840;81;20951;-65
2022/02/14 13:14:42;;;;;;;11.78;8.93;;;;;;;6.35;49.76;99515.14;1751610;81;21108;-68
2022/02/14 13:17:13;;;;;;;8.48;7.25;;;;;;;6.30;50.11;99514.25;1753341;81;20852;-66
2022/02/14 13:19:50;;;;;;;7.97;6.15;;;;;;;6.32;51.04;99519.38;1687892;83;21144;-66
2022/02/14 13:22:38;;;;;;;7.67;6.00;;;;;;;6.34;50.43;99536.75;1755315;81;20954;-65
2022/02/14 13:25:21;;;;;;;8.00;6.90;;;;;;;6.23;50.24;99511.33;1746273;81;20997;-69
2022/02/14 13:27:50;;;;;;;9.65;6.85;;;;;;;6.11;50.88;99513.79;1758991;81;21454;-66
2022/02/14 13:30:18;;;;;;;6.85;6.03;;;;;;;6.03;51.42;99513.66;1761310;81;21493;-67
2022/02/14 13:32:47;;;;;;;6.85;5.90;;;;;;;5.92;52.19;99514.28;1760614;81;21175;-66
2022/02/14 13:35:20;;;;;;;6.58;5.92;;;;;;;5.82;52.28;99507.66;1756488;81;21006;-68
2022/02/14 13:37:54;;;;;;;6.78;6.12;;;;;;;5.77;52.62;99515.17;1766331;81;21090;-68
2022/02/14 13:40:26;;;;;;;6.90;5.67;;;;;;;5.68;52.62;99509.41;1757522;81;21075;-66
2022/02/14 13:43:01;;;;;;;7.85;5.80;;;;;;;5.65;52.49;99508.84;1751132;81;20978;-67
2022/02/14 13:45:49;;;;;;;7.03;5.92;;;;;;;5.61;52.91;99513.55;1746524;81;21306;-69
2022/02/14 13:48:26;;;;;;;7.62;6.67;;;;;;;5.51;53.32;99511.40;1761357;81;20991;-68
2022/02/14 13:51:00;;;;;;;11.65;6.95;;;;;;;5.42;53.63;99501.69;1763995;81;20967;-68
2022/02/14 13:53:29;;;;;;;7.05;6.17;;;;;;;5.39;54.03;99508.55;1756979;80;21523;-67
2022/02/14 13:56:16;;;;;;;8.55;6.65;;;;;;;5.33;53.96;99496.73;1771095;80;20939;-69
2022/02/14 13:58:43;;;;;;;;;;;;;;;5.27;54.17;99490.67;1748285;80;21148;-68
2022/02/14 14:01:34;;;;;;;6.67;5.95;;;;;;;5.19;54.72;99482.61;1748396;80;20095;-69
2022/02/14 14:04:26;;;;;;;7.37;6.30;;;;;;;5.11;55.15;99484.28;1752399;80;21647;-69
2022/02/14 14:07:08;;;;;;;6.80;6.10;;;;;;;5.01;55.35;99486.88;1758831;80;20920;-68
2022/02/14 14:09:53;;;;;;;7.70;6.47;;;;;;;4.94;55.59;99491.86;1755087;80;21007;-68
2022/02/14 14:12:21;;;;;;;;;;;;;;;4.88;55.78;99485.80;1718394;82;21453;-68
2022/02/14 14:14:56;;;;;;;10.95;6.53;;;;;;;4.84;56.29;99481.78;1697469;84;20097;-68
2022/02/14 14:17:23;;;;;;;9.45;6.47;;;;;;;4.79;56.61;99487.94;1747455;80;21522;-67
2022/02/14 14:19:59;;;;;;;8.48;5.55;;;;;;;4.75;56.70;99475.98;1767798;80;20995;-67
2022/02/14 14:22:31;;;;;;;8.45;6.22;;;;;;;4.71;56.77;99473.27;1766722;80;21551;-70
2022/02/14 14:24:59;;;;;;;6.50;5.37;;;;;;;4.66;57.21;99483.38;1762986;80;21783;-69
2022/02/14 14:27:28;;;;;;;6.80;5.97;;;;;;;4.61;57.18;99487.38;1761105;80;21529;-69
2022/02/14 14:29:54;;;;;;;11.40;6.42;;;;;;;4.54;57.38;99473.88;1749314;80;21033;-68
2022/02/14 14:32:21;;;;;;;10.45;6.30;;;;;;;4.48;57.83;99477.06;1744868;81;21003;-69
2022/02/14 14:34:47;;;;;;;7.15;5.37;;;;;;;4.42;58.01;99478.90;1744745;80;20925;-68
2022/02/14 14:37:14;;;;;;;7.42;6.20;;;;;;;4.38;58.05;99469.58;1748887;80;21203;-69
2022/02/14 14:39:40;;;;;;;9.60;6.58;;;;;;;4.34;58.23;99483.51;1771593;80;21445;-67
2022/02/14 14:42:07;;;;;;;7.58;6.75;;;;;;;4.29;58.68;99484.38;1770874;80;20899;-68
2022/02/14 14:44:34;;;;;;;10.08;7.25;;;;;;;4.25;58.91;99472.91;1768821;80;20982;-68
2022/02/14 14:47:02;;;;;;;10.08;7.20;;;;;;;4.19;59.28;99478.71;1749838;80;21417;-68
2022/02/14 14:49:29;;;;;;;9.43;7.53;;;;;;;4.15;59.68;99479.44;1765810;80;21179;-67
2022/02/14 14:51:55;;;;;;;17.23;8.23;;;;;;;4.10;59.94;99479.00;1757058;80;21445;-67
2022/02/14 14:54:26;;;;;;;12.50;8.25;;;;;;;4.08;60.38;99480.09;1759293;80;21031;-69
2022/02/14 14:56:50;;;;;;;11.97;8.18;;;;;;;4.02;60.57;99485.39;1766512;80;20990;-70
2022/02/14 14:59:17;;;;;;;7.47;6.67;;;;;;;3.97;60.89;99485.41;1769928;80;21542;-71
2022/02/14 15:01:43;;;;;;;10.63;6.95;;;;;;;3.92;61.16;99492.86;1771658;80;21152;-70
2022/02/14 15:04:10;;;;;;;13.68;7.83;;;;;;;3.87;61.57;99484.05;1758423;80;20865;-67
2022/02/14 15:06:37;;;;;;;11.35;7.17;;;;;;;3.83;61.71;99487.06;1762510;80;21403;-68
2022/02/14 15:09:05;;;;;;;9.80;7.08;;;;;;;3.78;61.96;99482.67;1770201;80;20887;-69
2022/02/14 15:11:32;;;;;;;12.50;7.45;;;;;;;3.72;62.24;99487.48;1771869;80;20919;-66
2022/02/14 15:14:00;;;;;;;8.13;7.30;;;;;;;3.67;62.67;99490.13;1770818;80;21034;-66
2022/02/14 15:16:26;;;;;;;10.18;8.48;;;;;;;3.58;62.93;99494.34;1761566;80;21516;-65
2022/02/14 15:18:54;;;;;;;11.18;7.90;;;;;;;3.53;63.31;99499.15;1771381;80;21359;-66
2022/02/14 15:21:20;;;;;;;10.23;7.40;;;;;;;3.48;63.45;99493.91;1770275;80;21164;-66
2022/02/14 15:23:48;;;;;;;11.73;7.58;;;;;;;3.41;63.66;99496.69;1770799;80;21481;-65
2022/02/14 15:26:16;;;;;;;12.70;7.22;;;;;;;3.37;63.72;99490.83;1759808;80;22355;-65
2022/02/14 15:28:44;;;;;;;8.05;7.12;;;;;;;3.34;63.91;99489.77;1751802;80;20967;-65
2022/02/14 15:31:11;;;;;;;10.82;7.70;;;;;;;3.31;64.02;99492.64;1765985;80;20868;-66
2022/02/14 15:33:37;;;;;;;9.65;6.85;;;;;;;3.28;64.16;99490.28;1752442;80;20931;-66
2022/02/14 15:36:04;;;;;;;9.83;6.85;;;;;;;3.24;64.41;99494.09;1769047;80;21599;-66
2022/02/14 15:38:33;;;;;;;10.85;7.47;;;;;;;3.20;64.65;99497.11;1770466;80;21137;-65
2022/02/14 15:40:59;;;;;;;9.65;7.65;;;;;;;3.15;64.95;99489.59;1748303;80;21033;-64
2022/02/14 15:43:27;;;;;;;8.33;7.30;;;;;;;3.10;65.19;99487.82;1760043;80;20954;-66
2022/02/14 15:45:54;;;;;;;13.40;7.90;;;;;;;3.05;65.50;99491.30;1771271;80;21475;-66
2022/02/14 15:48:21;;;;;;;11.70;8.73;;;;;;;2.99;66.19;99486.52;1761277;80;20939;-67
2022/02/14 15:50:48;;;;;;;13.05;9.65;;;;;;;2.92;66.46;99497.17;1771600;80;21209;-66
2022/02/14 15:53:14;;;;;;;16.45;10.08;;;;;;;2.86;66.88;99500.27;1767166;80;20967;-66
2022/02/14 15:55:41;;;;;;;11.53;9.43;;;;;;;2.80;67.55;99502.06;1754115;80;21040;-65
2022/02/14 15:58:09;;;;;;;10.50;9.10;;;;;;;2.75;67.83;99493.70;1770212;80;20959;-66
2022/02/14 16:00:35;;;;;;;10.18;8.35;;;;;;;2.71;68.18;99497.55;1771679;80;21537;-67
2022/02/14 16:03:03;;;;;;;9.18;7.60;;;;;;;2.66;68.43;99501.83;1770063;80;21184;-65
2022/02/14 16:05:30;;;;;;;11.57;7.53;;;;;;;2.62;68.83;99497.78;1763191;80;21526;-71
2022/02/14 16:07:56;;;;;;;7.53;6.72;;;;;;;2.57;69.30;99499.94;1764945;80;21006;-65
2022/02/14 16:10:23;;;;;;;9.00;7.12;;;;;;;2.50;70.06;99508.75;1750132;80;20958;-69
2022/02/14 16:12:49;;;;;;;8.38;7.12;;;;;;;2.43;70.64;99508.03;1751345;80;21426;-67
2022/02/14 16:15:15;;;;;;;8.78;7.47;;;;;;;2.36;71.41;99501.59;1769414;80;21126;-64
2022/02/14 16:17:43;;;;;;;8.15;6.97;;;;;;;2.30;72.23;99505.98;1763318;80;20955;-68
2022/02/14 16:20:14;;;;;;;12.25;8.10;;;;;;;2.23;72.63;99505.64;1769856;80;20934;-66
2022/02/14 16:22:43;;;;;;;9.90;8.03;;;;;;;2.16;72.86;99512.31;1762825;80;20943;-67
2022/02/14 16:25:10;;;;;;;14.93;7.55;;;;;;;2.12;72.80;99512.17;1753990;80;20947;-67
2022/02/14 16:27:38;;;;;;;11.40;7.83;;;;;;;2.08;73.18;99505.97;1729974;82;21215;-65
2022/02/14 16:30:06;;;;;;;9.10;7.80;;;;;;;2.04;73.29;99513.22;1754334;80;21572;-68
2022/02/14 16:32:32;;;;;;;11.20;8.80;;;;;;;2.02;73.58;99508.58;1761300;80;20986;-65
2022/02/14 16:34:59;;;;;;;11.65;7.55;;;;;;;2.01;73.71;99508.70;1755684;80;20903;-65
2022/02/14 16:37:27;;;;;;;10.38;8.03;;;;;;;2.01;73.67;99516.08;1759626;80;20990;-66
2022/02/14 16:39:55;;;;;;;11.15;8.48;;;;;;;1.99;73.98;99513.20;1755093;80;21139;-65
2022/02/14 16:42:22;;;;;;;11.25;9.30;;;;;;;1.97;74.06;99516.43;1757960;80;20953;-69
2022/02/14 16:44:49;;;;;;;12.58;8.25;;;;;;;1.95;74.18;99510.47;1759725;80;20970;-68
2022/02/14 16:47:17;;;;;;;11.90;8.25;;;;;;;1.94;74.23;99516.66;1761696;80;20916;-66
2022/02/14 16:49:51;;;;;;;12.63;8.40;;;;;;;1.93;74.42;99521.56;1759385;80;21007;-68
2022/02/14 16:52:18;;;;;;;12.00;8.03;;;;;;;1.91;74.42;99517.72;1764320;80;21118;-69
2022/02/14 16:54:44;;;;;;;10.55;7.78;;;;;;;1.90;74.65;99522.63;1771245;80;20986;-68
2022/02/14 16:57:11;;;;;;;11.78;7.00;;;;;;;1.88;74.73;99515.33;1775660;80;20923;-69
2022/02/14 16:59:37;;;;;;;7.10;6.40;;;;;;;1.86;75.01;99525.10;1773770;80;21030;-69
2022/02/14 17:02:04;;;;;;;8.00;7.15;;;;;;;1.82;75.36;99523.67;1768993;80;21018;-65
2022/02/14 17:04:30;;;;;;;7.78;6.20;;;;;;;1.78;75.69;99528.77;1773265;80;21127;-66
2022/02/14 17:06:57;;;;;;;7.95;6.10;;;;;;;1.75;75.77;99522.44;1768313;80;21517;-66
2022/02/14 17:09:23;;;;;;;7.85;6.53;;;;;;;1.73;76.02;99515.16;1763186;80;20990;-67
2022/02/14 17:11:50;;;;;;;10.38;7.10;;;;;;;1.69;76.20;99510.64;1770626;80;21033;-68
2022/02/14 17:14:17;;;;;;;9.58;6.90;;;;;;;1.66;76.26;99517.89;1766011;80;21072;-68
2022/02/14 17:16:43;;;;;;;8.28;6.58;;;;;;;1.63;76.33;99512.39;1767610;80;22014;-66
2022/02/14 17:19:10;;;;;;;12.30;7.10;;;;;;;1.61;76.42;99514.77;1768440;80;20930;-67
2022/02/14 17:21:37;;;;;;;11.05;7.45;;;;;;;1.58;76.35;99509.28;1776930;80;20998;-65
2022/02/14 17:24:07;;;;;;;9.48;7.17;;;;;;;1.57;76.39;99505.44;1762789;80;20986;-65
2022/02/14 17:26:34;;;;;;;9.35;7.25;;;;;;;1.54;76.44;99502.56;1774344;80;21018;-65
2022/02/14 17:29:01;;;;;;;8.23;6.95;;;;;;;1.55;76.44;99500.78;1763459;80;21148;-66
2022/02/14 17:31:29;;;;;;;7.83;6.62;;;;;;;1.56;76.36;99511.18;1772913;80;21023;-67
2022/02/14 17:33:57;;;;;;;8.73;6.75;;;;;;;1.58;76.18;99503.19;1763993;80;21002;-66
2022/02/14 17:36:24;;;;;;;7.97;6.87;;;;;;;1.61;76.01;99504.28;1771897;80;21005;-66
2022/02/14 17:38:53;;;;;;;8.78;7.33;;;;;;;1.63;75.90;99504.52;1764958;80;21069;-65
2022/02/14 17:41:21;;;;;;;10.20;6.20;;;;;;;1.64;75.85;99510.11;1769944;80;21172;-67
2022/02/14 17:43:47;;;;;;;8.13;7.10;;;;;;;1.65;75.70;99506.55;1766592;80;20997;-65
2022/02/14 17:46:14;;;;;;;9.93;7.22;;;;;;;1.66;75.54;99499.53;1772980;80;21597;-66
2022/02/14 17:48:40;;;;;;;12.00;7.45;;;;;;;1.67;75.52;99504.64;1762978;80;20981;-68
2022/02/14 17:51:07;;;;;;;7.85;6.55;;;;;;;1.67;75.55;99506.42;1760754;80;20988;-65
2022/02/14 17:53:34;;;;;;;8.75;7.62;;;;;;;1.66;75.47;99497.75;1760404;80;21059;-64
2022/02/14 17:56:00;;;;;;;9.78;7.17;;;;;;;1.66;75.47;99496.91;1764400;80;21013;-65
2022/02/14 17:58:27;;;;;;;10.50;7.15;;;;;;;1.66;75.43;99507.39;1768902;80;20983;-65
2022/02/14 18:00:54;;;;;;;8.05;7.17;;;;;;;1.66;75.34;99504.30;1760668;80;21448;-65
2022/02/14 18:03:24;;;;;;;8.58;7.08;;;;;;;1.66;75.31;99492.97;1774080;80;20911;-69
2022/02/14 18:05:52;;;;;;;8.30;7.42;;;;;;;1.65;75.34;99504.40;1766615;80;21413;-65
2022/02/14 18:08:19;;;;;;;9.05;6.90;;;;;;;1.65;75.26;99493.91;1766162;80;21497;-64
2022/02/14 18:10:46;;;;;;;9.13;6.33;;;;;;;1.65;75.32;99513.58;1769299;80;21492;-68
2022/02/14 18:13:13;;;;;;;8.58;7.70;;;;;;;1.63;75.27;99501.06;1767940;80;21610;-67
2022/02/14 18:15:39;;;;;;;7.58;6.75;;;;;;;1.64;75.23;99502.75;1776075;80;21048;-66
2022/02/14 18:18:09;;;;;;;8.00;6.47;;;;;;;1.66;75.17;99504.77;1759542;80;21081;-68
2022/02/14 18:20:35;;;;;;;10.85;6.90;;;;;;;1.66;75.17;99496.44;1772519;80;21009;-67
2022/02/14 18:23:02;;;;;;;9.20;7.62;;;;;;;1.65;75.15;99506.55;1767393;80;20900;-63
2022/02/14 18:25:29;;;;;;;13.10;7.42;;;;;;;1.65;75.19;99499.16;1779349;80;21501;-63
2022/02/14 18:27:56;;;;;;;9.08;7.70;;;;;;;1.64;75.14;99491.76;1768640;80;21032;-66
2022/02/14 18:30:23;;;;;;;8.70;7.33;;;;;;;1.64;75.07;99496.19;1757735;80;21853;-77
2022/02/14 18:32:55;;;;;;;9.08;7.10;;;;;;;1.62;75.16;99499.38;1751958;81;20932;-65
2022/02/14 18:35:22;;;;;;;8.83;7.15;;;;;;;1.59;75.15;99486.02;1763723;80;21006;-67
2022/02/14 18:37:49;;;;;;;7.33;6.47;;;;;;;1.57;75.22;99492.33;1778720;80;20954;-66
2022/02/14 18:40:16;;;;;;;8.53;6.95;;;;;;;1.56;75.29;99495.45;1757390;80;20993;-65
2022/02/14 18:42:43;;;;;;;8.70;6.25;;;;;;;1.54;75.50;99495.20;1770812;80;21929;-65
2022/02/14 18:45:14;;;;;;;8.75;7.30;;;;;;;1.51;75.63;99496.73;1733783;80;20959;-66
2022/02/14 18:47:40;;;;;;;9.13;7.67;;;;;;;1.49;75.85;99489.43;1776737;80;21421;-65
2022/02/14 18:50:08;;;;;;;12.20;7.28;;;;;;;1.48;75.93;99494.33;1765877;80;21054;-68
2022/02/14 18:52:35;;;;;;;10.60;7.53;;;;;;;1.45;75.99;99490.63;1770762;80;20986;-65
2022/02/14 18:55:03;;;;;;;8.35;6.90;;;;;;;1.44;76.14;99490.25;1765764;80;21157;-67
2022/02/14 18:57:30;;;;;;;12.95;8.05;;;;;;;1.43;76.19;99486.81;1765866;80;20888;-65
2022/02/14 18:59:56;;;;;;;9.30;8.40;;;;;;;1.41;76.32;99489.19;1757045;80;20994;-65
2022/02/14 19:02:22;;;;;;;13.45;8.03;;;;;;;1.39;76.50;99489.75;1750906;80;21528;-65
2022/02/14 19:04:49;;;;;;;9.48;7.95;;;;;;;1.38;76.53;99482.85;1768991;80;20996;-65
2022/02/14 19:07:15;;;;;;;10.85;8.45;;;;;;;1.38;76.51;99481.54;1759024;80;21125;-66
2022/02/14 19:09:43;;;;;;;9.80;7.37;;;;;;;1.36;76.53;99486.88;1751317;80;21006;-65
2022/02/14 19:12:09;;;;;;;10.43;7.85;;;;;;;1.36;76.60;99482.11;1746924;80;20951;-63
2022/02/14 19:14:37;;;;;;;9.73;7.85;;;;;;;1.35;76.71;99476.52;1771620;80;20896;-65
2022/02/14 19:17:04;;;;;;;11.00;8.50;;;;;;;1.33;76.83;99471.37;1769652;80;20998;-65
2022/02/14 19:19:32;;;;;;;9.85;7.67;;;;;;;1.30;76.92;99471.62;1763655;80;21177;-67
2022/02/14 19:22:01;;;;;;;10.43;7.40;;;;;;;1.29;77.11;99475.64;1765070;80;20979;-66
2022/02/14 19:24:28;;;;;;;8.85;7.12;;;;;;;1.25;77.28;99473.24;1744076;82;20956;-67
2022/02/14 19:26:55;;;;;;;10.70;6.83;;;;;;;1.24;77.41;99475.98;1757072;80;21028;-65
2022/02/14 19:29:21;;;;;;;9.93;7.65;;;;;;;1.23;77.49;99472.53;1760538;80;20911;-67
2022/02/14 19:31:48;;;;;;;10.00;7.65;;;;;;;1.23;77.45;99476.45;1770820;80;22004;-69
2022/02/14 19:34:17;;;;;;;11.78;8.15;;;;;;;1.24;77.44;99470.75;1744940;80;20982;-67
2022/02/14 19:36:43;;;;;;;12.45;8.70;;;;;;;1.25;77.38;99467.19;1747832;80;21021;-67
2022/02/14 19:39:10;;;;;;;14.85;8.83;;;;;;;1.25;77.23;99487.66;1746411;80;20904;-66
2022/02/14 19:41:38;;;;;;;8.63;7.30;;;;;;;1.27;77.10;99468.37;1767266;80;20967;-66
2022/02/14 19:44:07;;;;;;;10.75;7.28;;;;;;;1.29;76.98;99476.95;1761236;80;21235;-66
2022/02/14 19:46:35;;;;;;;9.03;7.33;;;;;;;1.29;76.83;99460.77;1760248;80;20947;-67
2022/02/14 19:49:01;;;;;;;9.53;7.45;;;;;;;1.31;76.70;99464.10;1763949;80;21156;-67
2022/02/14 19:51:28;;;;;;;9.23;7.00;;;;;;;1.31;76.55;99471.12;1751021;80;21652;-68
2022/02/14 19:53:54;;;;;;;11.90;7.53;;;;;;;1.33;76.42;99464.01;1747929;80;20954;-69
2022/02/14 19:56:23;;;;;;;8.13;6.65;;;;;;;1.33;76.30;99478.42;1736926;80;21722;-67
2022/02/14 19:58:49;;;;;;;9.03;7.30;;;;;;;1.34;76.17;99473.05;1735878;82;20973;-66
2022/02/14 20:01:15;;;;;;;9.90;7.47;;;;;;;1.37;75.97;99475.45;1744733;82;20904;-65
2022/02/14 20:03:42;;;;;;;7.65;6.65;;;;;;;1.39;75.75;99470.09;1739973;82;20980;-67
2022/02/14 20:06:13;;;;;;;9.10;7.62;;;;;;;1.40;75.58;99482.26;1745593;82;21582;-65
2022/02/14 20:08:37;;;;;;;9.38;7.37;;;;;;;1.39;75.45;99467.47;1737529;82;22114;-66
2022/02/14 20:11:04;;;;;;;8.30;7.20;;;;;;;1.38;75.35;99462.73;1732773;82;21013;-66
2022/02/14 20:13:30;;;;;;;9.58;7.47;;;;;;;1.40;75.23;99467.84;1743257;82;20945;-65
2022/02/14 20:15:58;;;;;;;10.40;8.10;;;;;;;1.40;75.06;99461.28;1745386;82;20996;-65
2022/02/14 20:18:26;;;;;;;10.13;7.80;;;;;;;1.40;74.86;99458.66;1737834;82;21069;-64
2022/02/14 20:20:53;;;;;;;9.50;7.85;;;;;;;1.40;74.78;99467.37;1743860;82;21133;-65
2022/02/14 20:23:20;;;;;;;10.35;7.42;;;;;;;1.40;74.62;99463.91;1730327;81;21291;-72
2022/02/14 20:25:46;;;;;;;11.10;7.53;;;;;;;1.40;74.46;99456.89;1736716;82;21006;-64
2022/02/14 20:28:13;;;;;;;9.70;7.72;;;;;;;1.39;74.34;99465.69;1746448;82;21025;-64
2022/02/14 20:30:39;;;;;;;8.95;7.30;;;;;;;1.38;74.26;99460.57;1744925;81;21523;-64
2022/02/14 20:33:09;;;;;;;10.10;7.08;;;;;;;1.37;74.14;99461.51;1737092;82;21337;-65
2022/02/14 20:35:35;;;;;;;9.70;7.90;;;;;;;1.36;74.07;99458.52;1732606;82;21502;-64
2022/02/14 20:38:03;;;;;;;10.40;8.03;;;;;;;1.36;73.97;99465.06;1733009;82;21497;-65
2022/02/14 20:40:30;;;;;;;10.30;7.50;;;;;;;1.34;73.83;99458.64;1745600;82;21010;-64
2022/02/14 20:42:57;;;;;;;9.68;7.72;;;;;;;1.35;73.74;99456.86;1740856;82;21516;-64
2022/02/14 20:45:24;;;;;;;11.60;7.30;;;;;;;1.37;73.54;99471.99;1745218;82;21842;-64
2022/02/14 20:47:50;;;;;;;10.18;7.20;;;;;;;1.35;73.51;99463.41;1740671;82;20895;-65
2022/02/14 20:50:19;;;;;;;10.40;7.55;;;;;;;1.36;73.46;99469.84;1743258;82;20997;-65
2022/02/14 20:52:49;;;;;;;9.40;7.65;;;;;;;1.35;73.37;99455.55;1743021;82;21007;-65
2022/02/14 20:55:20;;;;;;;10.63;7.42;;;;;;;1.34;73.30;99465.19;1700086;82;20963;-64
2022/02/14 20:57:54;;;;;;;10.82;6.90;;;;;;;1.33;73.28;99461.39;1759768;80;21116;-64
2022/02/14 21:00:22;;;;;;;8.90;6.97;;;;;;;1.30;73.25;99463.76;1760422;80;21037;-64
2022/02/14 21:02:50;;;;;;;9.40;7.03;;;;;;;1.30;73.22;99465.54;1753587;80;20918;-64
2022/02/14 21:05:16;;;;;;;7.05;6.20;;;;;;;1.28;73.26;99467.44;1755397;80;20990;-65
2022/02/14 21:07:43;;;;;;;8.33;6.60;;;;;;;1.24;73.28;99468.97;1771589;80;21022;-64
2022/02/14 21:10:10;;;;;;;8.55;6.87;;;;;;;1.24;73.28;99474.68;1762292;80;22171;-63
2022/02/14 21:12:39;;;;;;;7.55;6.75;;;;;;;1.24;73.24;99471.59;1762860;80;20963;-63
2022/02/14 21:15:07;;;;;;;6.90;5.80;;;;;;;1.26;73.25;99472.78;1766920;80;20978;-65
2022/02/14 21:17:35;;;;;;;7.53;6.60;;;;;;;1.24;73.25;99473.37;1765066;80;20999;-65
2022/02/14 21:20:02;;;;;;;7.03;6.05;;;;;;;1.20;73.37;99475.83;1753190;80;21030;-65
2022/02/14 21:22:29;;;;;;;9.03;5.75;;;;;;;1.19;73.37;99475.49;1746725;80;21119;-63
2022/02/14 21:24:55;;;;;;;7.97;6.22;;;;;;;1.17;73.49;99478.20;1713740;82;20998;-65
2022/02/14 21:27:22;;;;;;;8.55;6.65;;;;;;;1.15;73.49;99474.86;1750167;80;20944;-64
2022/02/14 21:29:52;;;;;;;7.78;6.65;;;;;;;1.12;73.56;99480.83;1757020;80;20951;-64
2022/02/14 21:32:20;;;;;;;7.60;6.03;;;;;;;1.10;73.69;99475.67;1752586;80;21623;-65
2022/02/14 21:34:46;;;;;;;9.25;7.20;;;;;;;1.09;73.75;99474.48;1759412;80;21128;-64
2022/02/14 21:37:13;;;;;;;7.47;6.42;;;;;;;1.08;73.78;99484.59;1706869;84;21085;-65
2022/02/14 21:39:39;;;;;;;8.83;6.70;;;;;;;1.05;73.83;99478.26;1758631;80;20924;-65
2022/02/14 21:42:13;;;;;;;9.78;6.85;;;;;;;1.04;73.87;99476.11;1760045;80;21011;-63
2022/02/14 21:44:43;;;;;;;9.33;6.97;;;;;;;1.04;73.88;99484.47;1763945;80;21062;-66
2022/02/14 21:47:11;;;;;;;7.87;6.83;;;;;;;1.02;73.81;99488.48;1759125;80;21161;-64
2022/02/14 21:49:41;;;;;;;8.43;7.33;;;;;;;0.99;73.85;99470.36;1761367;80;20927;-65
2022/02/14 21:52:09;;;;;;;9.00;7.25;;;;;;;1.00;73.74;99473.36;1756971;80;21021;-65
2022/02/14 21:54:40;;;;;;;9.05;7.30;;;;;;;0.98;73.76;99482.28;1771864;80;20908;-65
2022/02/14 21:57:08;;;;;;;9.00;6.90;;;;;;;0.96;73.76;99481.09;1743833;80;21552;-64
2022/02/14 21:59:35;;;;;;;8.73;7.05;;;;;;;0.97;73.74;99474.88;1760237;80;21197;-66
2022/02/14 22:02:04;;;;;;;10.35;7.08;;;;;;;0.98;73.64;99478.34;1755198;80;21434;-65
2022/02/14 22:07:30;;;;;;;8.20;6.75;;;;;;;0.97;73.54;99476.66;1749821;80;21009;-64
2022/02/14 22:09:57;;;;;;;9.45;6.92;;;;;;;0.97;73.46;99469.65;1771380;80;22277;-64
2022/02/14 22:12:25;;;;;;;8.48;6.45;;;;;;;0.94;73.45;99478.22;1733208;82;21955;-64
2022/02/14 22:14:52;;;;;;;12.70;7.10;;;;;;;0.93;73.40;99480.00;1772205;80;21007;-65
2022/02/14 22:17:19;;;;;;;8.28;6.53;;;;;;;0.94;73.33;99490.81;1759132;80;20905;-65
2022/02/14 22:19:46;;;;;;;8.35;6.37;;;;;;;0.94;73.27;99484.27;1772180;80;20990;-64
2022/02/14 22:22:13;;;;;;;8.63;6.67;;;;;;;0.95;73.20;99487.27;1759545;80;21644;-66
2022/02/14 22:24:39;;;;;;;8.35;6.78;;;;;;;0.94;73.14;99487.39;1769607;80;21118;-64
2022/02/14 22:27:06;;;;;;;11.35;6.75;;;;;;;0.95;73.11;99497.74;1746070;80;20936;-65
2022/02/14 22:29:32;;;;;;;12.18;7.83;;;;;;;0.98;72.98;99489.67;1744489;82;21455;-66
2022/02/14 22:32:00;;;;;;;10.50;6.65;;;;;;;0.99;72.83;99502.30;1750284;80;21458;-65
2022/02/14 22:34:27;;;;;;;7.35;5.97;;;;;;;1.00;72.78;99490.86;1771644;80;21069;-64
2022/02/14 22:36:53;;;;;;;8.18;6.12;;;;;;;1.01;72.69;99491.23;1754744;80;21134;-64
2022/02/14 22:39:23;;;;;;;9.38;7.08;;;;;;;1.01;72.61;99488.61;1760554;80;21892;-66
2022/02/14 22:41:48;;;;;;;9.45;7.00;;;;;;;1.01;72.54;99486.83;1747583;80;20948;-66
2022/02/14 22:44:15;;;;;;;11.03;6.55;;;;;;;1.01;72.48;99489.45;1768724;80;21716;-67
2022/02/14 22:46:41;;;;;;;8.93;6.20;;;;;;;1.00;72.45;99493.01;1759354;80;21069;-66
2022/02/14 22:49:08;;;;;;;7.10;5.97;;;;;;;1.00;72.41;99490.39;1745803;80;21850;-66
2022/02/14 22:51:35;;;;;;;8.23;6.35;;;;;;;1.01;72.35;99488.14;1750552;80;20919;-66
2022/02/14 22:54:01;;;;;;;9.30;6.60;;;;;;;1.00;72.35;99483.84;1744005;80;21672;-65
2022/02/14 22:56:27;;;;;;;14.47;6.67;;;;;;;1.00;72.28;99473.36;1755875;80;21015;-65
2022/02/14 22:58:54;;;;;;;7.50;6.22;;;;;;;1.00;72.22;99475.98;1767280;80;21074;-64
2022/02/14 23:02:56;;;;;;;8.85;5.78;;;;;;;1.00;72.20;99476.45;1761408;80;21147;-66
2022/02/14 23:03:49;;;;;;;8.18;6.08;;;;;;;1.00;72.14;99471.20;1757349;80;21103;-66
2022/02/14 23:14:08;;;;;;;7.25;5.80;;;;;;;0.98;72.10;99476.57;1769429;80;20940;-65
2022/02/14 23:14:18;;;;;;;8.90;6.00;;;;;;;0.96;71.97;99466.69;1769830;80;21963;-65
2022/02/14 23:16:46;;;;;;;7.47;5.70;;;;;;;0.95;71.94;99467.62;1751472;80;21038;-66
2022/02/14 23:19:14;;;;;;;6.67;5.45;;;;;;;0.94;71.89;99451.52;1747205;80;21065;-65
2022/02/14 23:21:41;;;;;;;8.28;6.17;;;;;;;0.94;71.80;99452.02;1771321;80;21061;-65
2022/02/14 23:24:08;;;;;;;7.78;5.95;;;;;;;0.95;71.73;99457.14;1770130;80;20979;-66
2022/02/14 23:26:35;;;;;;;8.18;5.58;;;;;;;0.96;71.63;99446.19;1755319;80;21139;-65
2022/02/14 23:29:01;;;;;;;6.85;5.60;;;;;;;0.96;71.56;99452.27;1764456;80;21434;-65
2022/02/14 23:31:28;;;;;;;6.90;5.33;;;;;;;0.96;71.49;99454.89;1764283;80;20994;-65
2022/02/14 23:33:54;;;;;;;6.53;5.15;;;;;;;0.97;71.38;99457.02;1771493;80;20955;-65
2022/02/14 23:36:21;;;;;;;7.85;5.33;;;;;;;0.96;71.34;99458.83;1750600;80;21556;-66
2022/02/14 23:38:47;;;;;;;8.90;5.60;;;;;;;0.96;71.31;99450.97;1771833;80;21131;-65
2022/02/14 23:41:13;;;;;;;8.05;5.72;;;;;;;0.94;71.24;99451.52;1750616;80;20971;-66
2022/02/14 23:43:40;;;;;;;6.55;5.05;;;;;;;0.95;71.17;99457.14;1752764;80;20892;-66
2022/02/14 23:46:07;;;;;;;6.55;4.97;;;;;;;0.94;71.11;99451.52;1770214;80;20884;-66